createdAt,value
2023-05-01T00:00:20.596Z,4.37
2023-05-01T00:02:50.303Z,5.57
2023-05-01T00:05:18.676Z,3.30
2023-05-01T00:07:46.902Z,4.63
2023-05-01T00:10:15.126Z,4.57
2023-05-01T00:12:43.330Z,7.60
2023-05-01T00:15:11.964Z,6.43
2023-05-01T00:17:40.224Z,7.00
2023-05-01T00:20:10.635Z,3.27
2023-05-01T00:22:38.791Z,4.57
2023-05-01T00:25:07.391Z,3.40
2023-05-01T00:27:35.610Z,5.80
2023-05-01T00:30:03.857Z,4.17
2023-05-01T00:32:32.083Z,2.87
2023-05-01T00:35:00.258Z,6.87
2023-05-01T00:37:29.760Z,4.43
2023-05-01T00:39:58.252Z,3.30
2023-05-01T00:42:26.691Z,5.57
2023-05-01T00:44:54.845Z,2.97
2023-05-01T00:47:23.090Z,3.40
2023-05-01T00:49:51.518Z,4.23
2023-05-01T00:52:19.722Z,4.47
2023-05-01T00:54:51.966Z,5.10
2023-05-01T00:57:20.915Z,5.53
2023-05-01T00:59:49.319Z,5.70
2023-05-01T01:02:17.508Z,5.80
2023-05-01T01:04:47.392Z,3.57
2023-05-01T01:07:21.797Z,4.67
2023-05-01T01:09:57.829Z,4.93
2023-05-01T01:12:28.909Z,5.37
2023-05-01T01:15:00.012Z,3.10
2023-05-01T01:17:31.693Z,4.00
2023-05-01T01:20:12.990Z,5.90
2023-05-01T01:22:42.950Z,5.23
2023-05-01T01:25:29.925Z,2.57
2023-05-01T01:28:09.076Z,5.03
2023-05-01T01:30:46.434Z,4.00
2023-05-01T01:33:24.350Z,2.93
2023-05-01T01:35:57.411Z,2.83
2023-05-01T01:38:31.188Z,3.30
2023-05-01T01:41:01.496Z,4.90
2023-05-01T01:43:33.214Z,4.67
2023-05-01T01:46:03.891Z,5.93
2023-05-01T01:48:33.408Z,3.90
2023-05-01T01:51:05.539Z,3.30
2023-05-01T01:53:35.021Z,3.50
2023-05-01T01:56:04.345Z,3.53
2023-05-01T01:58:33.203Z,9.33
2023-05-01T02:01:01.677Z,3.23
2023-05-01T02:03:31.084Z,4.70
2023-05-01T02:06:00.225Z,4.43
2023-05-01T02:08:30.903Z,4.27
2023-05-01T02:11:01.716Z,4.03
2023-05-01T02:13:31.170Z,5.30
2023-05-01T02:16:00.585Z,2.60
2023-05-01T02:18:30.095Z,4.00
2023-05-01T02:20:58.785Z,4.43
2023-05-01T02:23:28.897Z,4.63
2023-05-01T02:25:59.217Z,4.00
2023-05-01T02:28:28.683Z,4.33
2023-05-01T02:30:57.246Z,5.20
2023-05-01T02:33:25.726Z,2.97
2023-05-01T02:35:53.910Z,3.40
2023-05-01T02:38:22.144Z,5.77
2023-05-01T02:40:53.240Z,4.30
2023-05-01T02:43:23.648Z,5.40
2023-05-01T02:45:52.875Z,5.30
2023-05-01T02:48:23.637Z,3.47
2023-05-01T02:50:52.278Z,5.43
2023-05-01T02:53:20.465Z,3.00
2023-05-01T02:55:48.696Z,3.70
2023-05-01T02:58:17.240Z,3.57
2023-05-01T03:00:47.177Z,5.20
2023-05-01T03:03:15.773Z,4.57
2023-05-01T03:05:44.241Z,3.57
2023-05-01T03:08:12.716Z,4.47
2023-05-01T03:10:42.637Z,2.63
2023-05-01T03:13:11.473Z,6.37
2023-05-01T03:15:39.661Z,4.20
2023-05-01T03:18:09.595Z,3.97
2023-05-01T03:20:37.927Z,5.23
2023-05-01T03:23:06.407Z,5.27
2023-05-01T03:25:34.580Z,2.90
2023-05-01T03:28:02.751Z,4.17
2023-05-01T03:30:30.924Z,4.57
2023-05-01T03:32:59.228Z,3.50
2023-05-01T03:35:29.194Z,2.63
2023-05-01T03:37:57.490Z,2.50
2023-05-01T03:40:25.670Z,2.90
2023-05-01T03:42:53.826Z,4.47
2023-05-01T03:45:22.010Z,4.47
2023-05-01T03:47:50.207Z,3.50
2023-05-01T03:50:18.464Z,5.67
2023-05-01T03:52:47.987Z,3.70
2023-05-01T03:55:16.178Z,3.47
2023-05-01T03:57:44.356Z,2.77
2023-05-01T04:00:13.162Z,3.63
2023-05-01T04:02:41.407Z,4.03
2023-05-01T04:05:10.664Z,3.80
2023-05-01T04:07:38.909Z,3.73
2023-05-01T04:10:09.828Z,4.63
2023-05-01T04:12:38.010Z,5.33
2023-05-01T04:15:06.523Z,4.97
2023-05-01T04:17:34.814Z,5.37
2023-05-01T04:20:04.598Z,6.27
2023-05-01T04:22:32.834Z,5.87
2023-05-01T04:25:01.152Z,5.70
2023-05-01T04:27:30.662Z,5.30
2023-05-01T04:29:59.232Z,3.83
2023-05-01T04:32:27.628Z,4.73
2023-05-01T04:34:56.225Z,3.60
2023-05-01T04:37:24.374Z,5.40
2023-05-01T04:39:52.556Z,5.27
2023-05-01T04:42:20.714Z,3.27
2023-05-01T04:44:50.584Z,5.03
2023-05-01T04:47:18.740Z,4.33
2023-05-01T04:49:46.894Z,3.20
2023-05-01T04:52:15.054Z,2.30
2023-05-01T04:54:43.213Z,5.40
2023-05-01T04:57:11.366Z,5.93
2023-05-01T04:59:39.511Z,2.33
2023-05-01T05:02:09.044Z,2.40
2023-05-01T05:04:37.215Z,2.23
2023-05-01T05:07:05.384Z,1.87
2023-05-01T05:09:33.565Z,1.70
2023-05-01T05:12:03.703Z,1.50
2023-05-01T05:14:31.883Z,2.13
2023-05-01T05:17:00.080Z,2.73
2023-05-01T05:19:29.637Z,2.73
2023-05-01T05:21:57.861Z,1.60
2023-05-01T05:24:26.202Z,1.63
2023-05-01T05:26:54.838Z,1.50
2023-05-01T05:29:22.997Z,1.63
2023-05-01T05:31:51.284Z,1.60
2023-05-01T05:34:19.503Z,2.43
2023-05-01T05:36:49.021Z,1.73
2023-05-01T05:39:17.171Z,1.90
2023-05-01T05:41:45.311Z,1.60
2023-05-01T05:44:13.469Z,1.67
2023-05-01T05:46:41.774Z,2.07
2023-05-01T05:49:10.245Z,4.57
2023-05-01T05:51:38.395Z,1.70
2023-05-01T05:54:07.898Z,3.10
2023-05-01T05:56:36.083Z,1.57
2023-05-01T05:59:06.353Z,2.67
2023-05-01T06:01:34.643Z,2.47
2023-05-01T06:04:02.888Z,1.60
2023-05-01T06:06:31.421Z,1.80
2023-05-01T06:09:00.149Z,1.87
2023-05-01T06:11:29.645Z,2.53
2023-05-01T06:13:58.306Z,1.40
2023-05-01T06:16:26.560Z,2.23
2023-05-01T06:18:54.777Z,2.07
2023-05-01T06:21:22.961Z,3.00
2023-05-01T06:23:51.113Z,2.33
2023-05-01T06:26:19.301Z,1.53
2023-05-01T06:28:48.880Z,2.47
2023-05-01T06:31:17.159Z,1.20
2023-05-01T06:33:45.385Z,1.40
2023-05-01T06:36:13.703Z,2.43
2023-05-01T06:38:48.126Z,1.60
2023-05-01T06:41:16.597Z,1.63
2023-05-01T06:43:44.751Z,1.83
2023-05-01T06:46:14.314Z,4.30
2023-05-01T06:48:42.516Z,1.67
2023-05-01T06:51:10.701Z,2.10
2023-05-01T06:53:40.276Z,2.57
2023-05-01T06:56:08.797Z,1.50
2023-05-01T06:58:36.943Z,1.67
2023-05-01T07:01:05.321Z,2.17
2023-05-01T07:03:35.045Z,1.30
2023-05-01T07:06:03.332Z,1.83
2023-05-01T07:08:31.595Z,1.57
2023-05-01T07:10:59.779Z,1.90
2023-05-01T07:13:27.929Z,1.40
2023-05-01T07:15:56.132Z,1.40
2023-05-01T07:18:24.364Z,1.50
2023-05-01T07:20:53.895Z,2.07
2023-05-01T07:23:23.563Z,1.90
2023-05-01T07:25:52.140Z,2.50
2023-05-01T07:28:21.765Z,2.63
2023-05-01T07:30:50.673Z,1.60
2023-05-01T07:33:18.890Z,2.63
2023-05-01T07:35:47.093Z,1.53
2023-05-01T07:38:17.169Z,1.70
2023-05-01T07:40:45.351Z,2.30
2023-05-01T07:43:13.547Z,1.30
2023-05-01T07:45:42.764Z,3.40
2023-05-01T07:48:11.410Z,2.17
2023-05-01T07:50:40.609Z,1.27
2023-05-01T07:53:08.901Z,5.33
2023-05-01T07:55:38.904Z,2.07
2023-05-01T07:58:07.114Z,2.03
2023-05-01T08:00:35.536Z,2.50
2023-05-01T08:03:03.833Z,1.87
2023-05-01T08:05:32.465Z,1.93
2023-05-01T08:08:00.655Z,1.37
2023-05-01T08:10:28.843Z,2.03
2023-05-01T08:12:58.386Z,2.00
2023-05-01T08:15:26.693Z,1.60
2023-05-01T08:17:55.088Z,2.87
2023-05-01T08:20:23.553Z,1.73
2023-05-01T08:22:52.241Z,3.13
2023-05-01T08:25:20.455Z,1.60
2023-05-01T08:27:48.941Z,1.80
2023-05-01T08:30:18.462Z,2.50
2023-05-01T08:32:46.780Z,3.50
2023-05-01T08:35:15.007Z,1.57
2023-05-01T08:37:43.186Z,1.67
2023-05-01T08:40:11.838Z,1.67
2023-05-01T08:42:40.149Z,2.17
2023-05-01T08:45:09.518Z,2.57
2023-05-01T08:47:39.471Z,3.17
2023-05-01T08:50:11.505Z,1.80
2023-05-01T08:52:42.955Z,1.47
2023-05-01T08:55:13.549Z,4.00
2023-05-01T08:57:41.943Z,4.27
2023-05-01T09:00:12.202Z,2.40
2023-05-01T09:02:42.935Z,3.80
2023-05-01T09:05:11.351Z,2.30
2023-05-01T09:07:40.546Z,2.37
2023-05-01T09:10:09.026Z,2.03
2023-05-01T09:12:37.549Z,3.53
2023-05-01T09:15:07.174Z,2.93
2023-05-01T09:17:36.840Z,3.67
2023-05-01T09:20:07.591Z,3.00
2023-05-01T09:22:36.842Z,2.60
2023-05-01T09:25:05.121Z,2.93
2023-05-01T09:27:36.100Z,3.73
2023-05-01T09:30:05.934Z,3.17
2023-05-01T09:32:34.247Z,3.77
2023-05-01T09:35:12.614Z,2.87
2023-05-01T09:37:40.803Z,2.93
2023-05-01T09:40:09.683Z,3.90
2023-05-01T09:42:38.685Z,3.43
2023-05-01T09:45:08.317Z,4.03
2023-05-01T09:47:36.967Z,3.33
2023-05-01T09:50:05.343Z,3.30
2023-05-01T09:52:34.905Z,4.17
2023-05-01T09:55:16.283Z,9.10
2023-05-01T09:57:45.235Z,4.20
2023-05-01T10:00:14.457Z,4.63
2023-05-01T10:02:43.293Z,3.87
2023-05-01T10:05:11.984Z,3.57
2023-05-01T10:07:42.995Z,3.50
2023-05-01T10:10:17.998Z,4.03
2023-05-01T10:12:46.528Z,3.47
2023-05-01T10:15:24.800Z,5.80
2023-05-01T10:17:54.550Z,5.80
2023-05-01T10:20:23.188Z,4.47
2023-05-01T10:22:52.722Z,6.93
2023-05-01T10:25:22.198Z,5.43
2023-05-01T10:27:52.198Z,6.07
2023-05-01T10:30:21.047Z,5.47
2023-05-01T10:32:49.332Z,7.77
2023-05-01T10:35:21.389Z,8.23
2023-05-01T10:37:50.270Z,8.33
2023-05-01T10:40:42.462Z,8.27
2023-05-01T10:43:25.791Z,8.07
2023-05-01T10:45:54.667Z,8.13
2023-05-01T10:48:42.207Z,8.53
2023-05-01T10:51:11.563Z,8.53
2023-05-01T10:53:39.978Z,6.93
2023-05-01T10:56:28.201Z,7.43
2023-05-01T10:59:00.744Z,5.77
2023-05-01T11:01:29.910Z,4.63
2023-05-01T11:03:58.294Z,7.87
2023-05-01T11:06:27.152Z,5.37
2023-05-01T11:08:56.776Z,4.73
2023-05-01T11:11:43.480Z,6.37
2023-05-01T11:14:13.028Z,6.17
2023-05-01T11:16:46.361Z,4.73
2023-05-01T11:19:29.615Z,6.80
2023-05-01T11:21:58.417Z,6.60
2023-05-01T11:24:33.005Z,10.10
2023-05-01T11:27:01.360Z,7.53
2023-05-01T11:29:33.880Z,8.33
2023-05-01T11:32:02.326Z,6.53
2023-05-01T11:34:37.506Z,6.87
2023-05-01T11:37:05.685Z,7.27
2023-05-01T11:39:33.899Z,7.30
2023-05-01T11:42:08.797Z,6.13
2023-05-01T11:44:38.878Z,10.77
2023-05-01T11:47:09.030Z,7.07
2023-05-01T11:49:37.266Z,8.27
2023-05-01T11:52:05.711Z,8.90
2023-05-01T11:54:33.996Z,7.90
2023-05-01T11:57:02.559Z,11.83
2023-05-01T11:59:31.451Z,8.17
2023-05-01T12:02:01.096Z,9.40
2023-05-01T12:04:32.233Z,6.97
2023-05-01T12:07:00.815Z,8.10
2023-05-01T12:09:29.438Z,10.37
2023-05-01T12:11:59.682Z,9.40
2023-05-01T12:14:28.031Z,8.30
2023-05-01T12:16:56.961Z,7.60
2023-05-01T12:19:26.510Z,7.70
2023-05-01T12:22:06.845Z,9.23
2023-05-01T12:24:35.093Z,9.37
2023-05-01T12:27:03.741Z,8.40
2023-05-01T12:29:41.445Z,9.90
2023-05-01T12:32:09.866Z,8.40
2023-05-01T12:34:39.433Z,11.27
2023-05-01T12:37:07.809Z,10.37
2023-05-01T12:39:38.537Z,9.83
2023-05-01T12:42:13.049Z,8.57
2023-05-01T12:44:41.266Z,8.47
2023-05-01T12:47:09.910Z,10.10
2023-05-01T12:49:40.135Z,8.77
2023-05-01T12:52:09.072Z,8.03
2023-05-01T12:54:38.405Z,8.63
2023-05-01T12:57:07.749Z,9.57
2023-05-01T12:59:37.407Z,8.17
2023-05-01T13:02:06.577Z,10.50
2023-05-01T13:04:35.351Z,7.43
2023-05-01T13:07:12.157Z,10.13
2023-05-01T13:09:40.415Z,9.93
2023-05-01T13:12:10.174Z,9.07
2023-05-01T13:14:39.124Z,9.07
2023-05-01T13:17:09.497Z,10.40
2023-05-01T13:19:38.557Z,11.37
2023-05-01T13:22:08.147Z,9.43
2023-05-01T13:24:40.444Z,8.67
2023-05-01T13:27:09.835Z,8.80
2023-05-01T13:29:38.741Z,12.13
2023-05-01T13:32:11.121Z,5.87
2023-05-01T13:34:43.707Z,5.80
2023-05-01T13:37:13.652Z,5.80
2023-05-01T13:39:42.543Z,4.40
2023-05-01T13:42:12.124Z,5.07
2023-05-01T13:44:45.488Z,4.10
2023-05-01T13:47:17.111Z,6.80
2023-05-01T13:49:45.353Z,5.70
2023-05-01T13:52:17.964Z,5.57
2023-05-01T13:54:46.752Z,4.63
2023-05-01T13:57:15.561Z,5.57
2023-05-01T13:59:45.181Z,6.13
2023-05-01T14:02:21.589Z,4.23
2023-05-01T14:04:50.287Z,2.63
2023-05-01T14:07:20.884Z,3.90
2023-05-01T14:09:55.170Z,2.70
2023-05-01T14:12:28.712Z,2.67
2023-05-01T14:14:57.445Z,2.83
2023-05-01T14:17:27.599Z,2.97
2023-05-01T14:19:56.064Z,3.27
2023-05-01T14:22:25.611Z,2.40
2023-05-01T14:24:53.788Z,3.40
2023-05-01T14:27:22.398Z,4.77
2023-05-01T14:29:50.977Z,3.63
2023-05-01T14:32:19.157Z,6.13
2023-05-01T14:34:47.423Z,4.70
2023-05-01T14:37:16.052Z,4.40
2023-05-01T14:39:45.270Z,3.43
2023-05-01T14:42:14.092Z,3.70
2023-05-01T14:44:43.359Z,3.37
2023-05-01T14:47:11.289Z,4.60
2023-05-01T14:49:41.893Z,4.03
2023-05-01T14:52:12.190Z,4.70
2023-05-01T14:54:48.311Z,3.70
2023-05-01T14:57:16.137Z,4.07
2023-05-01T14:59:44.023Z,5.77
2023-05-01T15:02:12.019Z,7.93
2023-05-01T15:04:39.948Z,5.90
2023-05-01T15:07:07.888Z,8.00
2023-05-01T15:09:35.794Z,8.50
2023-05-01T15:12:07.224Z,8.90
2023-05-01T15:14:35.555Z,14.10
2023-05-01T15:17:03.403Z,13.20
2023-05-01T15:19:31.260Z,12.97
2023-05-01T15:21:59.074Z,11.83
2023-05-01T15:24:27.266Z,18.40
2023-05-01T15:26:55.413Z,14.97
2023-05-01T15:29:24.669Z,10.70
2023-05-01T15:32:04.534Z,12.30
2023-05-01T15:34:36.724Z,11.23
2023-05-01T15:37:04.888Z,13.67
2023-05-01T15:39:33.147Z,11.17
2023-05-01T15:42:02.316Z,13.60
2023-05-01T15:44:31.869Z,9.67
2023-05-01T15:47:00.088Z,7.37
2023-05-01T15:49:28.324Z,8.47
2023-05-01T15:51:56.521Z,7.00
2023-05-01T15:54:25.043Z,9.47
2023-05-01T15:56:53.215Z,9.27
2023-05-01T15:59:21.367Z,7.73
2023-05-01T16:01:50.945Z,9.07
2023-05-01T16:04:19.174Z,9.57
2023-05-01T16:06:47.417Z,10.03
2023-05-01T16:09:15.847Z,9.40
2023-05-01T16:11:44.059Z,10.77
2023-05-01T16:14:12.859Z,9.83
2023-05-01T16:16:43.366Z,8.63
2023-05-01T16:19:13.891Z,10.17
2023-05-01T16:21:42.049Z,13.23
2023-05-01T16:24:11.557Z,7.70
2023-05-01T16:26:41.951Z,8.30
2023-05-01T16:29:10.259Z,8.97
2023-05-01T16:31:40.735Z,10.10
2023-05-01T16:34:09.147Z,9.33
2023-05-01T16:36:42.458Z,10.10
2023-05-01T16:39:11.040Z,11.37
2023-05-01T16:41:44.241Z,10.90
2023-05-01T16:44:12.547Z,11.70
2023-05-01T16:46:41.754Z,12.70
2023-05-01T16:49:13.510Z,14.70
2023-05-01T16:51:43.457Z,14.47
2023-05-01T16:54:11.817Z,13.57
2023-05-01T16:56:40.150Z,13.53
2023-05-01T16:59:08.426Z,13.33
2023-05-01T17:01:36.904Z,14.60
2023-05-01T17:04:05.414Z,16.63
2023-05-01T17:06:33.703Z,20.17
2023-05-01T17:09:03.263Z,17.27
2023-05-01T17:11:32.164Z,18.40
2023-05-01T17:14:00.479Z,16.77
2023-05-01T17:16:29.119Z,17.03
2023-05-01T17:18:57.338Z,16.23
2023-05-01T17:21:25.737Z,18.10
2023-05-01T17:23:54.641Z,16.87
2023-05-01T17:26:24.181Z,19.13
2023-05-01T17:28:52.340Z,16.37
2023-05-01T17:31:22.401Z,20.40
2023-05-01T17:33:50.877Z,19.33
2023-05-01T17:36:21.107Z,21.43
2023-05-01T17:38:50.193Z,19.13
2023-05-01T17:41:18.376Z,19.80
2023-05-01T17:43:47.902Z,19.93
2023-05-01T17:46:16.946Z,22.03
2023-05-01T17:48:45.241Z,22.13
2023-05-01T17:51:15.075Z,26.10
2023-05-01T17:53:43.327Z,22.00
2023-05-01T17:56:11.625Z,23.30
2023-05-01T17:58:40.719Z,23.50
2023-05-01T18:01:10.374Z,24.90
2023-05-01T18:03:39.000Z,25.70
2023-05-01T18:06:07.402Z,24.03
2023-05-01T18:08:36.000Z,24.47
2023-05-01T18:11:04.574Z,23.37
2023-05-01T18:13:37.972Z,22.90
2023-05-01T18:16:06.331Z,24.03
2023-05-01T18:18:36.087Z,25.97
2023-05-01T18:21:04.329Z,24.10
2023-05-01T18:23:32.507Z,26.67
2023-05-01T18:26:00.772Z,23.37
2023-05-01T18:28:28.977Z,22.93
2023-05-01T18:30:57.399Z,26.27
2023-05-01T18:33:25.745Z,22.30
2023-05-01T18:35:55.896Z,22.97
2023-05-01T18:38:25.410Z,22.20
2023-05-01T18:40:54.532Z,24.13
2023-05-01T18:43:22.689Z,22.00
2023-05-01T18:45:50.883Z,24.17
2023-05-01T18:48:19.493Z,23.43
2023-05-01T18:50:57.488Z,23.20
2023-05-01T18:53:36.562Z,28.90
2023-05-01T18:56:04.838Z,20.97
2023-05-01T18:58:33.028Z,22.67
2023-05-01T19:01:01.195Z,21.50
2023-05-01T19:03:29.428Z,20.00
2023-05-01T19:05:57.853Z,21.13
2023-05-01T19:08:26.042Z,25.03
2023-05-01T19:10:55.704Z,20.77
2023-05-01T19:13:23.871Z,21.40
2023-05-01T19:15:53.285Z,25.30
2023-05-01T19:18:21.530Z,23.80
2023-05-01T19:20:49.698Z,24.37
2023-05-01T19:23:17.857Z,24.23
2023-05-01T19:25:46.038Z,26.67
2023-05-01T19:28:15.551Z,30.40
2023-05-01T19:30:43.968Z,27.73
2023-05-01T19:33:12.251Z,25.93
2023-05-01T19:35:40.908Z,30.90
2023-05-01T19:38:09.082Z,31.40
2023-05-01T19:40:39.528Z,30.07
2023-05-01T19:43:07.667Z,27.63
2023-05-01T19:45:37.238Z,32.70
2023-05-01T19:48:06.109Z,30.30
2023-05-01T19:50:34.372Z,28.07
2023-05-01T19:53:03.212Z,31.93
2023-05-01T19:55:31.353Z,28.60
2023-05-01T19:57:59.509Z,30.07
2023-05-01T20:00:28.508Z,30.27
2023-05-01T20:02:58.254Z,30.27
2023-05-01T20:05:28.492Z,30.80
2023-05-01T20:07:57.812Z,31.33
2023-05-01T20:10:26.239Z,31.07
2023-05-01T20:12:54.513Z,32.30
2023-05-01T20:15:22.848Z,27.77
2023-05-01T20:17:51.129Z,33.27
2023-05-01T20:20:20.745Z,30.50
2023-05-01T20:22:48.959Z,29.60
2023-05-01T20:25:17.410Z,30.97
2023-05-01T20:27:45.628Z,29.63
2023-05-01T20:30:13.899Z,36.10
2023-05-01T20:32:44.111Z,31.63
2023-05-01T20:35:12.714Z,27.90
2023-05-01T20:37:42.242Z,34.37
2023-05-01T20:40:11.524Z,33.90
2023-05-01T20:42:39.885Z,32.50
2023-05-01T20:45:08.761Z,32.73
2023-05-01T20:47:37.052Z,34.03
2023-05-01T20:50:05.467Z,36.80
2023-05-01T20:52:33.624Z,30.73
2023-05-01T20:55:03.169Z,32.23
2023-05-01T20:57:31.377Z,31.63
2023-05-01T21:00:01.005Z,34.37
2023-05-01T21:02:29.534Z,35.97
2023-05-01T21:04:58.365Z,34.53
2023-05-01T21:07:26.829Z,34.37
2023-05-01T21:09:55.000Z,35.03
2023-05-01T21:12:24.575Z,39.37
2023-05-01T21:14:52.735Z,38.87
2023-05-01T21:17:20.902Z,40.17
2023-05-01T21:19:49.695Z,41.77
2023-05-01T21:22:19.174Z,42.83
2023-05-01T21:24:50.481Z,39.13
2023-05-01T21:27:18.654Z,38.47
2023-05-01T21:29:48.977Z,39.83
2023-05-01T21:32:18.100Z,38.70
2023-05-01T21:34:46.291Z,42.67
2023-05-01T21:37:18.589Z,40.50
2023-05-01T21:39:46.963Z,37.63
2023-05-01T21:42:16.121Z,40.90
2023-05-01T21:44:44.349Z,41.23
2023-05-01T21:47:14.569Z,40.87
2023-05-01T21:49:42.806Z,41.50
2023-05-01T21:52:11.543Z,41.77
2023-05-01T21:54:39.950Z,40.07
2023-05-01T21:57:08.096Z,40.63
2023-05-01T21:59:38.083Z,40.20
2023-05-01T22:02:07.542Z,44.87
2023-05-01T22:04:37.414Z,44.43
2023-05-01T22:07:05.885Z,42.67
2023-05-01T22:09:34.463Z,41.07
2023-05-01T22:12:02.611Z,40.63
2023-05-01T22:14:40.208Z,40.30
2023-05-01T22:17:14.782Z,41.20
2023-05-01T22:19:44.444Z,41.37
2023-05-01T22:22:12.645Z,40.63
2023-05-01T22:24:40.848Z,42.10
2023-05-01T22:27:09.086Z,37.97
2023-05-01T22:29:37.269Z,40.87
2023-05-01T22:32:05.831Z,42.50
2023-05-01T22:34:34.093Z,41.17
2023-05-01T22:37:03.578Z,40.40
2023-05-01T22:39:31.725Z,39.70
2023-05-01T22:41:59.887Z,40.00
2023-05-01T22:44:28.329Z,45.43
2023-05-01T22:46:56.609Z,42.97
2023-05-01T22:49:24.835Z,44.57
2023-05-01T22:51:52.983Z,43.83
2023-05-01T22:54:22.570Z,41.77
2023-05-01T22:56:51.706Z,44.27
2023-05-01T22:59:21.312Z,44.80
2023-05-01T23:01:49.569Z,45.53
2023-05-01T23:04:17.904Z,40.97
2023-05-01T23:06:46.351Z,49.33
2023-05-01T23:09:14.548Z,50.33
2023-05-01T23:11:44.700Z,48.40
2023-05-01T23:14:13.470Z,44.13
2023-05-01T23:16:42.380Z,42.47
2023-05-01T23:19:18.643Z,46.27
2023-05-01T23:21:46.807Z,44.90
2023-05-01T23:24:17.641Z,42.03
2023-05-01T23:26:47.333Z,43.93
2023-05-01T23:29:15.947Z,39.10
2023-05-01T23:31:48.707Z,40.23
2023-05-01T23:34:17.865Z,41.33
2023-05-01T23:36:47.132Z,47.40
2023-05-01T23:39:16.349Z,46.00
2023-05-01T23:41:44.749Z,45.13
2023-05-01T23:44:14.282Z,44.97
2023-05-01T23:46:42.680Z,43.03
2023-05-01T23:49:11.379Z,42.27
2023-05-01T23:51:39.527Z,45.93
2023-05-01T23:54:07.689Z,49.83
2023-05-01T23:56:35.937Z,48.47
2023-05-01T23:59:04.245Z,49.43
